Latest Weather Observations for Archerfield

IDQ60901

Issued at 1:32 am EST Thursday 24 August 2017 (issued every 10 minutes, with the page automatically refreshed every 10 minutes)

About weather observations | Map of Brisbane area stations | Latest observations for Brisbane area | Other Formats
Station Details ID: 040211 Name: ARCHERFIELD AIRPORT Lat: -27.57 Lon: 153.01 Height: 12.5 m
Data from the previous 72 hours. | See also: Recent months at Archerfield
Date/Time
EST
Temp
°C
App
Temp
°C
Dew
Point
°C
Rel
Hum
%
Delta-T
°C
Wind Press
QNH
hPa
Press
MSL
hPa
Rain since
9am
mm
Dir  Spd
km/h
Gust
km/h
Spd
kts
Gust
kts
24/01:30am 16.6 16.9 15.1 91 0.9 SE 7 9 4 5 1016.3 1016.3 0.0
24/01:00am 17.5 19.5 16.0 91 0.9 CALM 0 0 0 0 1016.7 1016.7 0.0
24/12:30am 17.7 18.6 16.0 90 1.0 W 6 7 3 4 1017.1 1017.1 0.0
24/12:00am 17.5 17.7 15.7 89 1.1 NNE 9 15 5 8 1017.1 1017.1 0.0
 
Date/Time
EST
Temp
°C
App
Temp
°C
Dew
Point
°C
Rel
Hum
%
Delta-T
°C
Wind Press
QNH
hPa
Press
MSL
hPa
Rain since
9am
mm
Dir  Spd
km/h
Gust
km/h
Spd
kts
Gust
kts
23/11:30pm 17.7 18.3 15.9 89 1.1 NNE 7 13 4 7 1017.2 1017.2 0.0
23/11:00pm 18.6 18.7 16.4 87 1.3 NNE 11 15 6 8 1017.0 1017.0 0.0
23/10:30pm 19.4 19.6 16.8 85 1.6 NE 11 17 6 9 1017.2 1017.2 0.0
23/10:00pm 19.5 19.5 17.3 87 1.3 NE 13 17 7 9 1017.0 1017.0 0.0
23/09:30pm 19.1 19.1 17.1 88 1.2 NNE 13 17 7 9 1017.1 1017.1 0.0
23/09:00pm 19.0 19.1 16.6 86 1.4 NNE 11 15 6 8 1017.1 1017.1 0.0
23/08:30pm 19.2 18.7 16.8 86 1.4 NNE 15 17 8 9 1017.4 1017.4 0.0
23/08:00pm 19.2 19.4 16.8 86 1.4 NNE 11 15 6 8 1017.4 1017.4 0.0
23/07:30pm 19.1 18.4 16.3 84 1.7 NNE 15 19 8 10 1017.3 1017.3 0.0
23/07:00pm 19.4 18.3 16.4 83 1.8 NNE 17 22 9 12 1017.1 1017.1 0.0
23/06:30pm 19.8 18.3 16.4 81 2.0 NNE 19 24 10 13 1017.1 1017.1 0.0
23/06:00pm 20.3 18.2 16.3 78 2.4 NNE 22 30 12 16 1016.9 1016.9 0.0
23/05:30pm 20.7 17.8 15.0 70 3.4 NNE 24 32 13 17 1016.9 1016.9 0.0
23/05:00pm 21.5 18.6 15.1 67 3.8 NNE 24 32 13 17 1016.5 1016.5 0.0
23/04:30pm 23.0 19.7 14.0 57 5.3 NNE 24 30 13 16 1016.2 1016.2 0.0
23/04:00pm 23.8 21.2 14.8 57 5.3 NNE 22 30 12 16 1016.0 1016.0 0.0
23/03:30pm 24.7 22.4 14.2 52 6.2 NE 19 28 10 15 1015.9 1015.9 0.0
23/03:00pm 26.0 24.4 11.4 40 8.3 W 11 19 6 10 1016.1 1016.1 0.0
23/02:30pm 25.0 24.5 12.6 46 7.1 SSW 7 19 4 10 1016.4 1016.4 0.0
23/02:00pm 25.5 24.6 13.7 48 6.9 WNW 11 17 6 9 1016.8 1016.8 0.0
23/01:30pm 24.8 24.4 14.0 51 6.4 NNW 9 20 5 11 1017.2 1017.2 0.0
23/01:00pm 24.4 23.6 13.9 52 6.2 W 11 19 6 10 1017.7 1017.7 0.0
23/12:30pm 24.0 22.6 14.4 55 5.7 W 15 22 8 12 1018.4 1018.4 0.0
23/12:00pm 23.1 21.8 13.6 55 5.5 W 13 20 7 11 1018.8 1018.8 0.0
23/11:30am 22.2 20.7 14.1 60 4.7 W 15 22 8 12 1019.5 1019.5 0.0
23/11:00am 22.1 20.1 14.0 60 4.7 W 17 24 9 13 1020.0 1020.0 0.0
23/10:30am 21.4 20.8 13.6 61 4.5 W 9 17 5 9 1020.4 1020.4 0.0
23/10:00am 20.7 20.6 13.2 62 4.3 W 6 11 3 6 1020.6 1020.6 0.0
23/09:30am 19.9 19.0 13.6 67 3.6 W 11 15 6 8 1020.8 1020.8 0.0
23/09:00am 18.8 18.4 14.1 74 2.7 WSW 9 13 5 7 1020.9 1020.9 0.0
23/08:30am 17.8 17.8 14.1 79 2.1 W 7 11 4 6 1020.9 1020.9 0.0
23/08:00am 16.7 16.4 14.3 86 1.4 WSW 9 11 5 6 1020.8 1020.8 0.0
23/07:30am 15.1 16.3 13.8 92 0.7 CALM 0 0 0 0 1020.6 1020.6 0.0
23/07:00am 12.7 13.1 11.1 90 0.8 CALM 0 6 0 3 1020.2 1020.2 0.0
23/06:30am 14.0 13.5 12.6 91 0.8 SSW 7 7 4 4 1020.0 1020.0 0.0
23/06:00am 14.0 13.7 12.7 92 0.7 SSW 6 7 3 4 1019.8 1019.8 0.0
23/05:30am 13.0 13.5 11.7 92 0.7 CALM 0 0 0 0 1019.6 1019.6 0.0
23/05:00am 13.5 13.0 12.1 91 0.8 WSW 6 7 3 4 1019.2 1019.2 0.0
23/04:30am 14.5 14.4 13.2 92 0.7 SW 6 9 3 5 1018.8 1018.8 0.0
23/04:00am 14.7 14.1 13.4 92 0.7 WSW 9 13 5 7 1018.6 1018.6 0.0
23/03:58am 14.5 14.2 13.2 92 0.7 SW 7 13 4 7 1018.6 1018.6 0.0
23/03:30am 14.7 15.9 13.7 94 0.6 CALM 0 2 0 1 1018.7 1018.7 0.0
23/03:10am 15.0 13.8 14.0 94 0.6 WSW 13 15 7 8 1018.6 1018.6 0.0
23/03:04am 14.8 14.3 13.8 94 0.6 WSW 9 15 5 8 1018.6 1018.6 0.0
23/03:00am 14.5 14.3 13.5 94 0.6 WSW 7 13 4 7 1018.6 1018.6 0.0
23/02:42am 14.7 15.9 13.7 94 0.6 CALM 0 0 0 0 1018.5 1018.5 0.0
23/02:32am 14.9 16.2 14.1 95 0.5 CALM 0 0 0 0 1018.5 1018.5 0.0
23/02:30am 15.0 16.3 14.2 95 0.5 CALM 0 0 0 0 1018.5 1018.5 0.0
23/02:00am 15.0 15.6 14.2 95 0.5 W 4 7 2 4 1018.5 1018.5 0.0
23/01:42am 14.0 13.3 13.1 94 0.5 WNW 9 11 5 6 1018.7 1018.7 0.0
23/01:38am 13.9 13.1 13.0 94 0.5 WNW 9 11 5 6 1018.7 1018.7 0.0
23/01:30am 13.9 13.1 13.0 94 0.5 WNW 9 11 5 6 1018.7 1018.7 0.0
23/01:08am 15.3 16.7 14.3 94 0.6 CALM 0 0 0 0 1018.8 1018.8 0.0
23/01:00am 15.3 16.7 14.3 94 0.6 CALM 0 0 0 0 1018.8 1018.8 0.0
23/12:30am 15.3 15.5 14.2 93 0.6 WSW 6 9 3 5 1018.9 1018.9 0.0
23/12:08am 15.6 16.6 14.3 92 0.7 W 2 9 1 5 1018.8 1018.8 0.0
23/12:00am 15.5 16.8 14.0 91 0.8 CALM 0 6 0 3 1018.7 1018.7 0.0
 
Date/Time
EST
Temp
°C
App
Temp
°C
Dew
Point
°C
Rel
Hum
%
Delta-T
°C
Wind Press
QNH
hPa
Press
MSL
hPa
Rain since
9am
mm
Dir  Spd
km/h
Gust
km/h
Spd
kts
Gust
kts
22/11:46pm 14.9 14.7 12.9 88 1.1 NE 6 9 3 5 1018.8 1018.8 0.0
22/11:30pm 17.3 17.9 15.8 91 0.9 ENE 7 9 4 5 1019.0 1019.0 0.0
22/11:00pm 17.2 17.3 15.5 90 1.0 NE 9 11 5 6 1018.7 1018.7 0.0
22/10:30pm 16.7 16.4 14.5 87 1.3 NNE 9 11 5 6 1018.7 1018.7 0.0
22/10:00pm 18.4 18.8 16.2 87 1.3 NE 9 11 5 6 1018.7 1018.7 0.0
22/09:30pm 18.5 17.2 15.9 85 1.5 NE 17 19 9 10 1018.5 1018.5 0.0
22/09:00pm 18.4 17.4 15.5 83 1.7 NNE 15 22 8 12 1018.5 1018.5 0.0
22/08:30pm 19.1 17.5 16.0 82 1.8 NNE 19 22 10 12 1018.3 1018.3 0.0
22/08:00pm 19.0 17.7 15.7 81 1.9 NNE 17 26 9 14 1018.1 1018.1 0.0
22/07:30pm 18.4 17.2 15.1 81 1.9 NNE 15 19 8 10 1018.0 1018.0 0.0
22/07:00pm 18.9 17.8 15.4 80 2.1 NNE 15 19 8 10 1017.7 1017.7 0.0
22/06:30pm 19.2 17.8 15.5 79 2.2 NNE 17 20 9 11 1017.5 1017.5 0.0
22/06:00pm 19.9 17.9 15.5 76 2.6 NNE 20 28 11 15 1017.1 1017.1 0.0
22/05:30pm 20.3 17.3 14.9 71 3.2 NNE 24 32 13 17 1016.8 1016.8 0.0
22/05:00pm 21.1 18.7 14.3 65 4.0 NNE 20 26 11 14 1016.4 1016.4 0.0
22/04:30pm 21.9 18.7 14.3 62 4.4 NNE 24 30 13 16 1016.2 1016.2 0.0
22/04:00pm 22.9 19.1 13.7 56 5.3 NE 26 32 14 17 1015.9 1015.9 0.0
22/03:30pm 23.9 20.5 13.7 53 6.0 NE 24 32 13 17 1015.6 1015.6 0.0
22/03:00pm 24.7 21.7 13.6 50 6.5 NNE 22 28 12 15 1015.6 1015.6 0.0
22/02:30pm 25.0 23.2 12.2 44 7.3 N 13 22 7 12 1015.7 1015.7 0.0
22/02:00pm 25.8 25.3 11.9 42 7.9 SSW 6 15 3 8 1016.0 1016.0 0.0
22/01:30pm 24.1 22.5 11.4 45 7.1 NE 11 22 6 12 1016.3 1016.3 0.0
22/01:00pm 24.6 24.2 12.9 48 6.8 NE 7 13 4 7 1016.6 1016.6 0.0
22/12:30pm 23.8 23.5 12.8 50 6.3 SE 6 13 3 7 1017.3 1017.3 0.0
22/12:00pm 22.8 22.3 12.7 53 5.8 S 7 13 4 7 1017.9 1017.9 0.0
22/11:30am 22.6 21.5 13.1 55 5.5 WNW 11 19 6 10 1018.6 1018.6 0.0
22/11:00am 21.4 20.0 12.3 56 5.1 W 11 15 6 8 1019.2 1019.2 0.0
22/10:30am 21.1 20.6 12.5 58 4.9 SSW 7 11 4 6 1019.6 1019.6 0.0
22/10:00am 20.2 19.8 12.4 61 4.4 SW 6 9 3 5 1019.8 1019.8 0.0
22/09:30am 19.3 19.4 12.8 66 3.7 WSW 4 9 2 5 1020.1 1020.1 0.0
22/09:00am 18.3 18.1 13.0 71 3.0 SSE 6 7 3 4 1020.2 1020.2 0.4
22/08:30am 16.1 15.6 12.8 81 1.8 SSE 7 9 4 5 1020.4 1020.4 0.4
22/08:00am 14.9 13.8 13.1 89 1.0 S 11 13 6 7 1020.2 1020.2 0.4
22/07:30am 13.7 13.2 12.6 93 0.6 S 7 9 4 5 1019.8 1019.8 0.4
22/07:00am 12.3 12.8 11.7 96 0.3 CALM 0 6 0 3 1019.5 1019.5 0.4
22/06:30am 11.6 10.5 10.8 95 0.4 SSW 7 9 4 5 1019.4 1019.4 0.4
22/06:12am 11.4 9.9 10.6 95 0.4 SSW 9 9 5 5 1019.2 1019.2 0.4
22/06:00am 11.3 9.8 10.5 95 0.4 SSW 9 9 5 5 1019.0 1019.0 0.4
22/05:36am 11.8 11.0 10.9 94 0.5 SSW 6 7 3 4 1018.8 1018.8 0.4
22/05:30am 12.1 11.3 11.2 94 0.5 SSW 6 6 3 3 1019.0 1019.0 0.4
22/05:00am 12.7 12.1 11.8 94 0.5 SSE 6 7 3 4 1018.8 1018.8 0.4
22/04:30am 12.8 12.1 11.9 94 0.5 SSE 7 11 4 6 1018.5 1018.5 0.4
22/04:00am 12.8 12.3 11.9 94 0.5 SSE 6 9 3 5 1018.6 1018.6 0.4
22/03:30am 12.8 12.1 11.9 94 0.5 SSW 7 9 4 5 1018.6 1018.6 0.4
22/03:00am 13.0 12.5 11.9 93 0.6 SSW 6 9 3 5 1018.5 1018.5 0.4
22/02:30am 13.3 12.7 12.4 94 0.5 SE 7 7 4 4 1018.5 1018.5 0.4
22/02:00am 13.3 13.6 12.2 93 0.6 SW 2 9 1 5 1019.0 1019.0 0.2
22/01:30am 13.4 12.0 12.3 93 0.6 S 11 13 6 7 1018.8 1018.8 0.2
22/01:00am 13.2 13.8 11.8 91 0.7 CALM 0 0 0 0 1019.0 1019.0 0.2
22/12:30am 13.7 13.2 12.1 90 0.9 SW 6 7 3 4 1019.2 1019.2 0.2
22/12:00am 15.2 14.3 13.6 90 0.9 E 11 15 6 8 1018.7 1018.7 0.2
 
Date/Time
EST
Temp
°C
App
Temp
°C
Dew
Point
°C
Rel
Hum
%
Delta-T
°C
Wind Press
QNH
hPa
Press
MSL
hPa
Rain since
9am
mm
Dir  Spd
km/h
Gust
km/h
Spd
kts
Gust
kts
21/11:30pm 14.4 13.4 12.3 87 1.1 SSE 9 13 5 7 1019.4 1019.4 0.0
21/11:00pm 14.4 13.2 11.7 84 1.4 SSW 9 11 5 6 1019.8 1019.8 0.0
21/10:30pm 15.4 16.2 12.5 83 1.6 CALM 0 0 0 0 1019.1 1019.1 0.0
21/10:00pm 15.5 15.2 12.6 83 1.6 NNE 6 6 3 3 1019.2 1019.2 0.0
21/09:30pm 15.4 14.5 12.5 83 1.6 NE 9 13 5 7 1018.9 1018.9 0.0
21/09:00pm 15.2 14.5 12.0 81 1.7 NNE 7 9 4 5 1019.3 1019.3 0.0
21/08:30pm 15.9 15.0 12.5 80 1.9 NE 9 11 5 6 1019.3 1019.3 0.0
21/08:00pm 15.6 14.5 12.0 79 2.0 NNE 9 15 5 8 1019.2 1019.2 0.0
21/07:30pm 16.4 14.7 12.4 77 2.2 NNE 13 17 7 9 1019.0 1019.0 0.0
21/07:00pm 16.1 14.5 11.7 75 2.4 NNE 11 15 6 8 1018.8 1018.8 0.0
21/06:30pm 17.0 14.4 11.9 72 2.8 NNE 17 22 9 12 1018.5 1018.5 0.0
21/06:00pm 17.4 14.6 11.4 68 3.3 NNE 17 24 9 13 1018.3 1018.3 0.0
21/05:30pm 17.7 13.5 11.0 65 3.6 NNE 24 32 13 17 1017.9 1017.9 0.0
21/05:00pm 18.0 14.1 10.9 63 3.8 NNE 22 30 12 16 1018.1 1018.1 0.0
21/04:30pm 18.3 14.8 10.9 62 4.0 NE 20 26 11 14 1018.0 1018.0 0.0
21/04:00pm 18.7 14.3 10.5 59 4.4 NE 24 30 13 16 1017.9 1017.9 0.0
21/03:30pm 19.5 15.2 10.8 57 4.7 NE 24 32 13 17 1018.0 1018.0 0.0
21/03:00pm 20.3 16.5 9.8 51 5.6 NNE 20 30 11 16 1018.3 1018.3 0.0
21/02:30pm 21.1 18.4 9.0 46 6.4 N 13 24 7 13 1018.3 1018.3 0.0
21/02:00pm 22.4 19.4 6.2 35 8.2 N 11 20 6 11 1018.6 1018.6 0.0
21/01:30pm 20.9 17.9 4.0 33 8.1 NW 9 13 5 7 1019.0 1019.0 0.0
21/01:00pm 21.5 18.8 2.7 29 8.8 S 6 11 3 6 1019.4 1019.4 0.0
21/12:30pm 21.7 19.2 3.9 31 8.6 W 6 13 3 7 1020.0 1020.0 0.0
21/12:00pm 21.0 19.0 7.3 41 7.0 E 7 13 4 7 1020.5 1020.5 0.0
21/11:30am 20.3 18.1 7.7 44 6.5 NW 9 22 5 12 1021.2 1021.2 0.0
21/11:00am 18.9 16.9 6.4 44 6.2 SSE 6 11 3 6 1021.7 1021.7 0.0
21/10:30am 18.2 15.3 6.4 46 5.8 SW 11 17 6 9 1022.2 1022.2 0.0
21/10:00am 17.2 13.8 5.8 47 5.5 WSW 13 17 7 9 1022.5 1022.5 0.0
21/09:30am 15.6 11.7 5.2 50 4.9 WSW 15 20 8 11 1022.8 1022.8 0.0
21/09:00am 14.0 10.0 4.9 54 4.2 W 15 19 8 10 1022.7 1022.7 0.0
21/08:30am 13.3 10.1 5.2 58 3.8 WSW 11 15 6 8 1022.3 1022.3 0.0
21/08:00am 11.4 8.7 5.7 68 2.6 WSW 9 13 5 7 1022.3 1022.3 0.0
21/07:30am 8.6 6.3 4.8 77 1.7 SSW 6 6 3 3 1022.0 1022.0 0.0
21/07:00am 7.0 4.9 4.1 82 1.2 S 4 6 2 3 1021.8 1021.8 0.0
21/06:30am 5.6 3.0 3.1 84 1.0 S 6 7 3 4 1021.5 1021.5 0.0
21/06:00am 6.3 4.5 3.3 81 1.3 SSW 2 7 1 4 1020.9 1020.9 0.0
21/05:30am 6.6 4.9 3.8 82 1.2 SSE 2 6 1 3 1020.5 1020.5 0.0
21/05:00am 5.1 2.4 2.5 83 1.1 SW 6 7 3 4 1020.3 1020.3 0.0
21/04:30am 5.8 4.4 3.8 87 0.8 CALM 0 0 0 0 1020.0 1020.0 0.0
21/04:00am 5.8 4.4 3.5 85 1.0 CALM 0 0 0 0 1019.7 1019.7 0.0
21/03:30am 7.0 5.9 5.2 88 0.8 CALM 0 0 0 0 1019.6 1019.6 0.0
21/03:00am 4.5 2.9 2.5 87 0.8 CALM 0 6 0 3 1019.9 1019.9 0.0
21/02:30am 6.2 2.7 3.7 84 1.1 SW 11 13 6 7 1019.8 1019.8 0.0
21/02:00am 7.3 6.3 5.4 88 0.8 CALM 0 0 0 0 1020.0 1020.0 0.0

Latest Capital City Observations: Canberra | Sydney | Melbourne | Brisbane | Adelaide | Perth | Hobart | Darwin

Other Formats:

Comma delimited format used in spreadsheet applications
http://www.bom.gov.au/fwo/IDQ60901/IDQ60901.94575.axf

JavaScript Object Notation format (JSON) in row-major order
http://www.bom.gov.au/fwo/IDQ60901/IDQ60901.94575.json